sensor_id;sensor_type;location;lat;lon;timestamp;P1;durP1;ratioP1;P2;durP2;ratioP2
10977;SDS011;5542;48.272;10.794;2023-04-03T00:01:33;2.87;;;2.67;;
10977;SDS011;5542;48.272;10.794;2023-04-03T00:04:00;2.72;;;2.53;;
10977;SDS011;5542;48.272;10.794;2023-04-03T00:06:26;4.72;;;4.30;;
10977;SDS011;5542;48.272;10.794;2023-04-03T00:08:54;3.83;;;3.53;;
10977;SDS011;5542;48.272;10.794;2023-04-03T00:11:21;4.28;;;3.90;;
10977;SDS011;5542;48.272;10.794;2023-04-03T00:13:47;3.20;;;2.90;;
10977;SDS011;5542;48.272;10.794;2023-04-03T00:16:14;2.97;;;2.77;;
10977;SDS011;5542;48.272;10.794;2023-04-03T00:18:41;3.08;;;2.78;;
10977;SDS011;5542;48.272;10.794;2023-04-03T00:21:09;3.50;;;3.20;;
10977;SDS011;5542;48.272;10.794;2023-04-03T00:23:36;3.42;;;3.10;;
10977;SDS011;5542;48.272;10.794;2023-04-03T00:26:04;3.53;;;3.22;;
10977;SDS011;5542;48.272;10.794;2023-04-03T00:28:30;3.80;;;3.50;;
10977;SDS011;5542;48.272;10.794;2023-04-03T00:30:57;3.40;;;3.10;;
10977;SDS011;5542;48.272;10.794;2023-04-03T00:33:23;3.22;;;3.03;;
10977;SDS011;5542;48.272;10.794;2023-04-03T00:35:50;4.25;;;3.33;;
10977;SDS011;5542;48.272;10.794;2023-04-03T00:38:17;4.05;;;3.38;;
10977;SDS011;5542;48.272;10.794;2023-04-03T00:40:46;3.90;;;3.33;;
10977;SDS011;5542;48.272;10.794;2023-04-03T00:43:15;3.72;;;3.42;;
10977;SDS011;5542;48.272;10.794;2023-04-03T00:45:45;3.50;;;3.20;;
10977;SDS011;5542;48.272;10.794;2023-04-03T00:48:14;3.70;;;3.40;;
10977;SDS011;5542;48.272;10.794;2023-04-03T00:50:43;3.42;;;3.13;;
10977;SDS011;5542;48.272;10.794;2023-04-03T00:53:11;3.58;;;3.28;;
10977;SDS011;5542;48.272;10.794;2023-04-03T00:55:41;3.40;;;3.10;;
10977;SDS011;5542;48.272;10.794;2023-04-03T00:58:10;3.33;;;3.03;;
10977;SDS011;5542;48.272;10.794;2023-04-03T01:00:40;3.15;;;2.95;;
10977;SDS011;5542;48.272;10.794;2023-04-03T01:03:10;3.03;;;2.80;;
10977;SDS011;5542;48.272;10.794;2023-04-03T01:05:37;3.20;;;2.90;;
10977;SDS011;5542;48.272;10.794;2023-04-03T01:08:04;4.25;;;3.17;;
10977;SDS011;5542;48.272;10.794;2023-04-03T01:10:31;4.20;;;3.10;;
10977;SDS011;5542;48.272;10.794;2023-04-03T01:12:58;2.90;;;2.67;;
10977;SDS011;5542;48.272;10.794;2023-04-03T01:15:26;2.67;;;2.47;;
10977;SDS011;5542;48.272;10.794;2023-04-03T01:17:57;2.63;;;2.42;;
10977;SDS011;5542;48.272;10.794;2023-04-03T01:20:36;2.47;;;2.28;;
10977;SDS011;5542;48.272;10.794;2023-04-03T01:23:19;2.53;;;2.33;;
10977;SDS011;5542;48.272;10.794;2023-04-03T01:25:55;2.63;;;2.40;;
10977;SDS011;5542;48.272;10.794;2023-04-03T01:28:23;2.65;;;2.45;;
10977;SDS011;5542;48.272;10.794;2023-04-03T01:30:53;2.60;;;2.40;;
10977;SDS011;5542;48.272;10.794;2023-04-03T01:33:28;2.60;;;2.40;;
10977;SDS011;5542;48.272;10.794;2023-04-03T01:35:55;2.20;;;2.05;;
10977;SDS011;5542;48.272;10.794;2023-04-03T01:38:21;2.50;;;2.30;;
10977;SDS011;5542;48.272;10.794;2023-04-03T01:40:48;2.70;;;2.50;;
10977;SDS011;5542;48.272;10.794;2023-04-03T01:43:14;2.50;;;2.30;;
10977;SDS011;5542;48.272;10.794;2023-04-03T01:45:41;2.25;;;2.05;;
10977;SDS011;5542;48.272;10.794;2023-04-03T01:48:07;2.55;;;2.17;;
10977;SDS011;5542;48.272;10.794;2023-04-03T01:50:35;2.20;;;2.08;;
10977;SDS011;5542;48.272;10.794;2023-04-03T01:53:02;2.30;;;2.10;;
10977;SDS011;5542;48.272;10.794;2023-04-03T01:55:28;2.20;;;2.05;;
10977;SDS011;5542;48.272;10.794;2023-04-03T01:57:55;2.47;;;2.28;;
10977;SDS011;5542;48.272;10.794;2023-04-03T02:00:21;2.60;;;2.40;;
10977;SDS011;5542;48.272;10.794;2023-04-03T02:02:48;1.95;;;1.85;;
10977;SDS011;5542;48.272;10.794;2023-04-03T02:05:15;2.20;;;2.10;;
10977;SDS011;5542;48.272;10.794;2023-04-03T02:07:43;2.33;;;2.15;;
10977;SDS011;5542;48.272;10.794;2023-04-03T02:10:09;2.80;;;2.10;;
10977;SDS011;5542;48.272;10.794;2023-04-03T02:12:36;2.20;;;2.10;;
10977;SDS011;5542;48.272;10.794;2023-04-03T02:15:03;2.90;;;2.60;;
10977;SDS011;5542;48.272;10.794;2023-04-03T02:17:30;2.45;;;2.33;;
10977;SDS011;5542;48.272;10.794;2023-04-03T02:19:57;2.60;;;2.40;;
10977;SDS011;5542;48.272;10.794;2023-04-03T02:22:24;2.55;;;2.35;;
10977;SDS011;5542;48.272;10.794;2023-04-03T02:24:51;2.60;;;2.30;;
10977;SDS011;5542;48.272;10.794;2023-04-03T02:27:18;2.47;;;2.28;;
10977;SDS011;5542;48.272;10.794;2023-04-03T02:29:44;2.30;;;2.20;;
10977;SDS011;5542;48.272;10.794;2023-04-03T02:32:11;3.35;;;2.40;;
10977;SDS011;5542;48.272;10.794;2023-04-03T02:34:38;2.60;;;2.00;;
10977;SDS011;5542;48.272;10.794;2023-04-03T02:37:04;2.28;;;2.15;;
10977;SDS011;5542;48.272;10.794;2023-04-03T02:39:31;2.35;;;2.22;;
10977;SDS011;5542;48.272;10.794;2023-04-03T02:41:59;2.77;;;2.30;;
10977;SDS011;5542;48.272;10.794;2023-04-03T02:44:25;2.25;;;1.92;;
10977;SDS011;5542;48.272;10.794;2023-04-03T02:46:52;2.22;;;2.03;;
10977;SDS011;5542;48.272;10.794;2023-04-03T02:49:18;2.13;;;2.03;;
10977;SDS011;5542;48.272;10.794;2023-04-03T02:51:45;2.47;;;2.25;;
10977;SDS011;5542;48.272;10.794;2023-04-03T02:54:12;2.50;;;2.30;;
10977;SDS011;5542;48.272;10.794;2023-04-03T02:56:39;2.35;;;2.15;;
10977;SDS011;5542;48.272;10.794;2023-04-03T02:59:07;2.28;;;2.10;;
10977;SDS011;5542;48.272;10.794;2023-04-03T03:01:34;2.35;;;2.20;;
10977;SDS011;5542;48.272;10.794;2023-04-03T03:04:00;2.83;;;2.25;;
10977;SDS011;5542;48.272;10.794;2023-04-03T03:06:27;2.30;;;2.10;;
10977;SDS011;5542;48.272;10.794;2023-04-03T03:08:54;2.35;;;2.15;;
10977;SDS011;5542;48.272;10.794;2023-04-03T03:11:20;2.35;;;2.15;;
10977;SDS011;5542;48.272;10.794;2023-04-03T03:13:47;2.72;;;2.53;;
10977;SDS011;5542;48.272;10.794;2023-04-03T03:16:15;2.50;;;2.30;;
10977;SDS011;5542;48.272;10.794;2023-04-03T03:18:41;2.50;;;2.30;;
10977;SDS011;5542;48.272;10.794;2023-04-03T03:21:08;2.50;;;2.30;;
10977;SDS011;5542;48.272;10.794;2023-04-03T03:23:36;2.50;;;2.30;;
10977;SDS011;5542;48.272;10.794;2023-04-03T03:26:03;2.55;;;2.35;;
10977;SDS011;5542;48.272;10.794;2023-04-03T03:28:31;2.60;;;2.40;;
10977;SDS011;5542;48.272;10.794;2023-04-03T03:30:59;2.50;;;2.30;;
10977;SDS011;5542;48.272;10.794;2023-04-03T03:33:27;3.70;;;2.42;;
10977;SDS011;5542;48.272;10.794;2023-04-03T03:35:54;2.20;;;2.10;;
10977;SDS011;5542;48.272;10.794;2023-04-03T03:38:21;2.70;;;2.50;;
10977;SDS011;5542;48.272;10.794;2023-04-03T03:40:48;2.90;;;2.57;;
10977;SDS011;5542;48.272;10.794;2023-04-03T03:43:16;2.38;;;2.17;;
10977;SDS011;5542;48.272;10.794;2023-04-03T03:45:43;2.78;;;2.45;;
10977;SDS011;5542;48.272;10.794;2023-04-03T03:48:10;3.28;;;2.47;;
10977;SDS011;5542;48.272;10.794;2023-04-03T03:50:38;2.50;;;2.30;;
10977;SDS011;5542;48.272;10.794;2023-04-03T03:53:05;2.30;;;2.10;;
10977;SDS011;5542;48.272;10.794;2023-04-03T03:55:31;2.97;;;2.72;;
10977;SDS011;5542;48.272;10.794;2023-04-03T03:57:58;2.80;;;2.60;;
10977;SDS011;5542;48.272;10.794;2023-04-03T04:00:25;2.40;;;2.20;;
10977;SDS011;5542;48.272;10.794;2023-04-03T04:02:51;3.65;;;2.38;;
10977;SDS011;5542;48.272;10.794;2023-04-03T04:05:18;3.05;;;2.45;;
10977;SDS011;5542;48.272;10.794;2023-04-03T04:07:46;2.65;;;2.45;;
10977;SDS011;5542;48.272;10.794;2023-04-03T04:10:12;2.70;;;2.50;;
10977;SDS011;5542;48.272;10.794;2023-04-03T04:12:39;2.88;;;2.67;;
10977;SDS011;5542;48.272;10.794;2023-04-03T04:15:06;2.92;;;2.58;;
10977;SDS011;5542;48.272;10.794;2023-04-03T04:17:33;2.43;;;2.23;;
10977;SDS011;5542;48.272;10.794;2023-04-03T04:20:00;2.80;;;2.53;;
10977;SDS011;5542;48.272;10.794;2023-04-03T04:22:27;2.47;;;2.37;;
10977;SDS011;5542;48.272;10.794;2023-04-03T04:24:55;2.80;;;2.60;;
10977;SDS011;5542;48.272;10.794;2023-04-03T04:27:22;2.60;;;2.40;;
10977;SDS011;5542;48.272;10.794;2023-04-03T04:29:48;2.88;;;2.60;;
10977;SDS011;5542;48.272;10.794;2023-04-03T04:32:15;3.37;;;2.83;;
10977;SDS011;5542;48.272;10.794;2023-04-03T04:34:41;3.03;;;2.83;;
10977;SDS011;5542;48.272;10.794;2023-04-03T04:37:08;3.33;;;3.03;;
10977;SDS011;5542;48.272;10.794;2023-04-03T04:39:34;3.80;;;3.20;;
10977;SDS011;5542;48.272;10.794;2023-04-03T04:42:03;3.05;;;2.80;;
10977;SDS011;5542;48.272;10.794;2023-04-03T04:44:29;3.10;;;2.80;;
10977;SDS011;5542;48.272;10.794;2023-04-03T04:46:56;3.10;;;2.80;;
10977;SDS011;5542;48.272;10.794;2023-04-03T04:49:22;2.97;;;2.67;;
10977;SDS011;5542;48.272;10.794;2023-04-03T04:51:49;2.92;;;2.63;;
10977;SDS011;5542;48.272;10.794;2023-04-03T04:54:15;2.80;;;2.60;;
10977;SDS011;5542;48.272;10.794;2023-04-03T04:56:42;2.77;;;2.47;;
10977;SDS011;5542;48.272;10.794;2023-04-03T04:59:10;3.10;;;2.83;;
10977;SDS011;5542;48.272;10.794;2023-04-03T05:01:36;2.58;;;2.38;;
10977;SDS011;5542;48.272;10.794;2023-04-03T05:04:03;3.28;;;2.97;;
10977;SDS011;5542;48.272;10.794;2023-04-03T05:06:30;3.70;;;2.90;;
10977;SDS011;5542;48.272;10.794;2023-04-03T05:08:57;3.13;;;2.72;;
10977;SDS011;5542;48.272;10.794;2023-04-03T05:11:24;3.08;;;2.78;;
10977;SDS011;5542;48.272;10.794;2023-04-03T05:13:50;2.92;;;2.72;;
10977;SDS011;5542;48.272;10.794;2023-04-03T05:16:18;3.15;;;2.85;;
10977;SDS011;5542;48.272;10.794;2023-04-03T05:18:45;3.33;;;2.75;;
10977;SDS011;5542;48.272;10.794;2023-04-03T05:21:11;2.97;;;2.67;;
10977;SDS011;5542;48.272;10.794;2023-04-03T05:23:38;3.17;;;2.87;;
10977;SDS011;5542;48.272;10.794;2023-04-03T05:26:04;3.53;;;2.83;;
10977;SDS011;5542;48.272;10.794;2023-04-03T05:28:31;3.10;;;2.80;;
10977;SDS011;5542;48.272;10.794;2023-04-03T05:30:58;3.05;;;2.80;;
10977;SDS011;5542;48.272;10.794;2023-04-03T05:33:26;3.10;;;2.80;;
10977;SDS011;5542;48.272;10.794;2023-04-03T05:35:53;2.90;;;2.60;;
10977;SDS011;5542;48.272;10.794;2023-04-03T05:38:20;3.17;;;2.92;;
10977;SDS011;5542;48.272;10.794;2023-04-03T05:40:47;3.20;;;2.90;;
10977;SDS011;5542;48.272;10.794;2023-04-03T05:43:13;2.90;;;2.60;;
10977;SDS011;5542;48.272;10.794;2023-04-03T05:45:40;3.05;;;2.85;;
10977;SDS011;5542;48.272;10.794;2023-04-03T05:48:07;3.00;;;2.80;;
10977;SDS011;5542;48.272;10.794;2023-04-03T05:50:35;2.90;;;2.70;;
10977;SDS011;5542;48.272;10.794;2023-04-03T05:53:06;3.42;;;2.90;;
10977;SDS011;5542;48.272;10.794;2023-04-03T05:55:38;4.07;;;3.33;;
10977;SDS011;5542;48.272;10.794;2023-04-03T05:58:05;4.45;;;3.20;;
10977;SDS011;5542;48.272;10.794;2023-04-03T06:00:31;3.05;;;2.85;;
10977;SDS011;5542;48.272;10.794;2023-04-03T06:02:58;3.42;;;2.90;;
10977;SDS011;5542;48.272;10.794;2023-04-03T06:05:24;3.58;;;3.28;;
10977;SDS011;5542;48.272;10.794;2023-04-03T06:07:52;3.35;;;3.05;;
10977;SDS011;5542;48.272;10.794;2023-04-03T06:10:19;3.70;;;3.10;;
10977;SDS011;5542;48.272;10.794;2023-04-03T06:12:46;3.40;;;3.10;;
10977;SDS011;5542;48.272;10.794;2023-04-03T06:15:12;3.47;;;3.17;;
10977;SDS011;5542;48.272;10.794;2023-04-03T06:17:39;3.67;;;2.97;;
10977;SDS011;5542;48.272;10.794;2023-04-03T06:20:06;3.23;;;2.93;;
10977;SDS011;5542;48.272;10.794;2023-04-03T06:22:34;3.50;;;3.20;;
10977;SDS011;5542;48.272;10.794;2023-04-03T06:25:02;3.42;;;3.13;;
10977;SDS011;5542;48.272;10.794;2023-04-03T06:27:29;3.47;;;3.17;;
10977;SDS011;5542;48.272;10.794;2023-04-03T06:29:56;3.65;;;3.35;;
10977;SDS011;5542;48.272;10.794;2023-04-03T06:32:23;3.40;;;3.08;;
10977;SDS011;5542;48.272;10.794;2023-04-03T06:34:50;3.50;;;3.20;;
10977;SDS011;5542;48.272;10.794;2023-04-03T06:37:18;3.58;;;3.28;;
10977;SDS011;5542;48.272;10.794;2023-04-03T06:39:47;3.00;;;2.80;;
10977;SDS011;5542;48.272;10.794;2023-04-03T06:42:15;3.30;;;3.10;;
10977;SDS011;5542;48.272;10.794;2023-04-03T06:44:41;3.73;;;3.30;;
10977;SDS011;5542;48.272;10.794;2023-04-03T06:47:09;4.47;;;3.42;;
10977;SDS011;5542;48.272;10.794;2023-04-03T06:49:37;4.00;;;3.60;;
10977;SDS011;5542;48.272;10.794;2023-04-03T06:52:04;4.38;;;3.40;;
10977;SDS011;5542;48.272;10.794;2023-04-03T06:54:30;3.92;;;3.55;;
10977;SDS011;5542;48.272;10.794;2023-04-03T06:56:57;4.00;;;3.40;;
10977;SDS011;5542;48.272;10.794;2023-04-03T06:59:25;3.28;;;2.97;;
10977;SDS011;5542;48.272;10.794;2023-04-03T07:01:52;3.80;;;3.40;;
10977;SDS011;5542;48.272;10.794;2023-04-03T07:04:19;3.78;;;3.40;;
10977;SDS011;5542;48.272;10.794;2023-04-03T07:06:46;3.40;;;3.10;;
10977;SDS011;5542;48.272;10.794;2023-04-03T07:09:13;3.58;;;3.28;;
10977;SDS011;5542;48.272;10.794;2023-04-03T07:11:39;4.93;;;3.53;;
10977;SDS011;5542;48.272;10.794;2023-04-03T07:14:06;4.13;;;3.38;;
10977;SDS011;5542;48.272;10.794;2023-04-03T07:16:34;3.47;;;3.17;;
10977;SDS011;5542;48.272;10.794;2023-04-03T07:19:01;3.63;;;3.33;;
10977;SDS011;5542;48.272;10.794;2023-04-03T07:21:28;4.05;;;3.60;;
10977;SDS011;5542;48.272;10.794;2023-04-03T07:23:55;3.85;;;3.45;;
10977;SDS011;5542;48.272;10.794;2023-04-03T07:26:22;3.60;;;3.30;;
10977;SDS011;5542;48.272;10.794;2023-04-03T07:28:49;3.97;;;3.58;;
10977;SDS011;5542;48.272;10.794;2023-04-03T07:31:16;3.67;;;3.30;;
10977;SDS011;5542;48.272;10.794;2023-04-03T07:33:45;3.78;;;3.47;;
10977;SDS011;5542;48.272;10.794;2023-04-03T07:36:14;3.30;;;3.00;;
10977;SDS011;5542;48.272;10.794;2023-04-03T07:38:42;3.95;;;3.22;;
10977;SDS011;5542;48.272;10.794;2023-04-03T07:41:10;3.78;;;3.38;;
10977;SDS011;5542;48.272;10.794;2023-04-03T07:43:38;4.15;;;3.78;;
10977;SDS011;5542;48.272;10.794;2023-04-03T07:46:05;4.50;;;3.55;;
10977;SDS011;5542;48.272;10.794;2023-04-03T07:48:32;3.65;;;3.35;;
10977;SDS011;5542;48.272;10.794;2023-04-03T07:51:01;3.80;;;3.40;;
10977;SDS011;5542;48.272;10.794;2023-04-03T07:53:29;3.97;;;3.58;;
10977;SDS011;5542;48.272;10.794;2023-04-03T07:55:56;3.33;;;3.03;;
10977;SDS011;5542;48.272;10.794;2023-04-03T07:58:25;3.10;;;2.90;;
10977;SDS011;5542;48.272;10.794;2023-04-03T08:00:51;5.30;;;3.20;;
10977;SDS011;5542;48.272;10.794;2023-04-03T08:03:18;4.07;;;3.20;;
10977;SDS011;5542;48.272;10.794;2023-04-03T08:05:46;2.97;;;2.70;;
10977;SDS011;5542;48.272;10.794;2023-04-03T08:08:15;4.13;;;3.70;;
10977;SDS011;5542;48.272;10.794;2023-04-03T08:10:43;4.45;;;3.30;;
10977;SDS011;5542;48.272;10.794;2023-04-03T08:13:14;3.30;;;3.00;;
10977;SDS011;5542;48.272;10.794;2023-04-03T08:15:41;4.43;;;3.25;;
10977;SDS011;5542;48.272;10.794;2023-04-03T08:18:08;3.17;;;2.90;;
10977;SDS011;5542;48.272;10.794;2023-04-03T08:20:35;3.30;;;2.60;;
10977;SDS011;5542;48.272;10.794;2023-04-03T08:23:02;3.00;;;2.80;;
10977;SDS011;5542;48.272;10.794;2023-04-03T08:25:30;3.20;;;2.75;;
10977;SDS011;5542;48.272;10.794;2023-04-03T08:27:57;2.90;;;2.70;;
10977;SDS011;5542;48.272;10.794;2023-04-03T08:30:23;4.15;;;3.30;;
10977;SDS011;5542;48.272;10.794;2023-04-03T08:32:50;3.13;;;2.85;;
10977;SDS011;5542;48.272;10.794;2023-04-03T08:35:17;3.03;;;2.75;;
10977;SDS011;5542;48.272;10.794;2023-04-03T08:37:44;3.40;;;3.10;;
10977;SDS011;5542;48.272;10.794;2023-04-03T08:40:13;2.88;;;2.67;;
10977;SDS011;5542;48.272;10.794;2023-04-03T08:42:45;3.20;;;2.95;;
10977;SDS011;5542;48.272;10.794;2023-04-03T08:45:19;3.30;;;3.00;;
10977;SDS011;5542;48.272;10.794;2023-04-03T08:47:53;3.03;;;2.83;;
10977;SDS011;5542;48.272;10.794;2023-04-03T08:50:26;3.13;;;2.90;;
10977;SDS011;5542;48.272;10.794;2023-04-03T08:52:57;3.28;;;3.00;;
10977;SDS011;5542;48.272;10.794;2023-04-03T08:55:25;2.88;;;2.60;;
10977;SDS011;5542;48.272;10.794;2023-04-03T08:57:58;2.80;;;2.60;;
10977;SDS011;5542;48.272;10.794;2023-04-03T09:00:28;4.25;;;3.05;;
10977;SDS011;5542;48.272;10.794;2023-04-03T09:02:58;3.47;;;3.17;;
10977;SDS011;5542;48.272;10.794;2023-04-03T09:05:29;3.72;;;3.10;;
10977;SDS011;5542;48.272;10.794;2023-04-03T09:08:11;4.32;;;3.10;;
10977;SDS011;5542;48.272;10.794;2023-04-03T09:10:41;4.20;;;3.15;;
10977;SDS011;5542;48.272;10.794;2023-04-03T09:13:10;2.95;;;2.75;;
10977;SDS011;5542;48.272;10.794;2023-04-03T09:15:43;3.22;;;2.72;;
10977;SDS011;5542;48.272;10.794;2023-04-03T09:18:12;3.30;;;2.60;;
10977;SDS011;5542;48.272;10.794;2023-04-03T09:20:44;3.03;;;2.60;;
10977;SDS011;5542;48.272;10.794;2023-04-03T09:23:18;2.83;;;2.60;;
10977;SDS011;5542;48.272;10.794;2023-04-03T09:25:48;2.40;;;2.20;;
10977;SDS011;5542;48.272;10.794;2023-04-03T09:28:20;3.10;;;2.80;;
10977;SDS011;5542;48.272;10.794;2023-04-03T09:30:47;3.33;;;2.72;;
10977;SDS011;5542;48.272;10.794;2023-04-03T09:33:13;2.97;;;2.70;;
10977;SDS011;5542;48.272;10.794;2023-04-03T09:35:41;3.75;;;2.58;;
10977;SDS011;5542;48.272;10.794;2023-04-03T09:38:16;2.60;;;2.40;;
10977;SDS011;5542;48.272;10.794;2023-04-03T09:40:47;2.75;;;2.47;;
10977;SDS011;5542;48.272;10.794;2023-04-03T09:43:25;2.47;;;2.27;;
10977;SDS011;5542;48.272;10.794;2023-04-03T09:45:54;2.75;;;2.55;;
10977;SDS011;5542;48.272;10.794;2023-04-03T09:48:22;2.63;;;2.43;;
10977;SDS011;5542;48.272;10.794;2023-04-03T09:50:57;2.63;;;2.43;;
10977;SDS011;5542;48.272;10.794;2023-04-03T09:53:30;3.03;;;2.80;;
10977;SDS011;5542;48.272;10.794;2023-04-03T09:56:00;2.58;;;2.38;;
10977;SDS011;5542;48.272;10.794;2023-04-03T09:58:37;2.77;;;2.53;;
10977;SDS011;5542;48.272;10.794;2023-04-03T10:01:08;2.83;;;2.60;;
10977;SDS011;5542;48.272;10.794;2023-04-03T10:03:49;3.15;;;2.75;;
10977;SDS011;5542;48.272;10.794;2023-04-03T10:06:30;2.75;;;2.50;;
10977;SDS011;5542;48.272;10.794;2023-04-03T10:08:58;2.75;;;2.55;;
10977;SDS011;5542;48.272;10.794;2023-04-03T10:11:29;2.97;;;2.75;;
10977;SDS011;5542;48.272;10.794;2023-04-03T10:13:57;2.60;;;2.40;;
10977;SDS011;5542;48.272;10.794;2023-04-03T10:16:26;2.97;;;2.47;;
10977;SDS011;5542;48.272;10.794;2023-04-03T10:19:22;2.47;;;2.35;;
10977;SDS011;5542;48.272;10.794;2023-04-03T10:21:58;2.90;;;2.70;;
10977;SDS011;5542;48.272;10.794;2023-04-03T10:24:30;2.80;;;2.60;;
10977;SDS011;5542;48.272;10.794;2023-04-03T10:27:03;2.90;;;2.55;;
10977;SDS011;5542;48.272;10.794;2023-04-03T10:29:40;2.40;;;2.20;;
10977;SDS011;5542;48.272;10.794;2023-04-03T10:32:13;2.63;;;2.42;;
10977;SDS011;5542;48.272;10.794;2023-04-03T10:35:00;2.50;;;2.30;;
10977;SDS011;5542;48.272;10.794;2023-04-03T10:37:35;3.47;;;2.70;;
10977;SDS011;5542;48.272;10.794;2023-04-03T10:40:20;4.32;;;2.80;;
10977;SDS011;5542;48.272;10.794;2023-04-03T10:42:57;3.05;;;2.75;;
10977;SDS011;5542;48.272;10.794;2023-04-03T10:45:46;2.80;;;2.60;;
10977;SDS011;5542;48.272;10.794;2023-04-03T10:48:25;2.80;;;2.60;;
10977;SDS011;5542;48.272;10.794;2023-04-03T10:51:09;3.00;;;2.70;;
10977;SDS011;5542;48.272;10.794;2023-04-03T10:53:43;4.78;;;2.70;;
10977;SDS011;5542;48.272;10.794;2023-04-03T10:56:15;3.35;;;2.80;;
10977;SDS011;5542;48.272;10.794;2023-04-03T10:58:48;2.70;;;2.50;;
10977;SDS011;5542;48.272;10.794;2023-04-03T11:01:22;3.20;;;2.90;;
10977;SDS011;5542;48.272;10.794;2023-04-03T11:03:52;3.10;;;2.80;;
10977;SDS011;5542;48.272;10.794;2023-04-03T11:06:21;3.00;;;2.70;;
10977;SDS011;5542;48.272;10.794;2023-04-03T11:08:51;4.30;;;3.03;;
10977;SDS011;5542;48.272;10.794;2023-04-03T11:11:24;2.97;;;2.78;;
10977;SDS011;5542;48.272;10.794;2023-04-03T11:13:55;3.70;;;3.22;;
10977;SDS011;5542;48.272;10.794;2023-04-03T11:16:30;3.20;;;2.90;;
10977;SDS011;5542;48.272;10.794;2023-04-03T11:19:00;3.25;;;2.95;;
10977;SDS011;5542;48.272;10.794;2023-04-03T11:21:32;2.92;;;2.72;;
10977;SDS011;5542;48.272;10.794;2023-04-03T11:24:05;3.15;;;2.75;;
10977;SDS011;5542;48.272;10.794;2023-04-03T11:26:41;3.28;;;2.97;;
10977;SDS011;5542;48.272;10.794;2023-04-03T11:29:10;3.00;;;2.70;;
10977;SDS011;5542;48.272;10.794;2023-04-03T11:31:48;3.42;;;2.83;;
10977;SDS011;5542;48.272;10.794;2023-04-03T11:34:33;2.80;;;2.53;;
10977;SDS011;5542;48.272;10.794;2023-04-03T11:37:05;3.13;;;2.83;;
10977;SDS011;5542;48.272;10.794;2023-04-03T11:39:39;2.70;;;2.50;;
10977;SDS011;5542;48.272;10.794;2023-04-03T11:42:23;3.63;;;2.80;;
10977;SDS011;5542;48.272;10.794;2023-04-03T11:47:45;2.42;;;2.22;;
10977;SDS011;5542;48.272;10.794;2023-04-03T11:55:54;2.90;;;2.70;;
10977;SDS011;5542;48.272;10.794;2023-04-03T11:58:22;3.00;;;2.70;;
10977;SDS011;5542;48.272;10.794;2023-04-03T12:01:00;2.80;;;2.60;;
10977;SDS011;5542;48.272;10.794;2023-04-03T12:09:26;2.80;;;2.60;;
10977;SDS011;5542;48.272;10.794;2023-04-03T12:11:55;2.95;;;2.75;;
10977;SDS011;5542;48.272;10.794;2023-04-03T12:14:23;3.10;;;2.80;;
10977;SDS011;5542;48.272;10.794;2023-04-03T12:16:52;2.85;;;2.65;;
10977;SDS011;5542;48.272;10.794;2023-04-03T12:19:33;3.70;;;3.33;;
10977;SDS011;5542;48.272;10.794;2023-04-03T12:22:14;2.80;;;2.60;;
10977;SDS011;5542;48.272;10.794;2023-04-03T12:24:45;3.05;;;2.60;;
10977;SDS011;5542;48.272;10.794;2023-04-03T12:30:06;2.90;;;2.60;;
10977;SDS011;5542;48.272;10.794;2023-04-03T12:32:46;3.40;;;2.50;;
10977;SDS011;5542;48.272;10.794;2023-04-03T12:35:21;2.92;;;2.40;;
10977;SDS011;5542;48.272;10.794;2023-04-03T12:40:56;2.60;;;2.40;;
10977;SDS011;5542;48.272;10.794;2023-04-03T12:43:34;2.22;;;2.10;;
10977;SDS011;5542;48.272;10.794;2023-04-03T12:46:10;2.60;;;2.40;;
10977;SDS011;5542;48.272;10.794;2023-04-03T12:48:47;2.50;;;2.28;;
10977;SDS011;5542;48.272;10.794;2023-04-03T12:51:18;2.65;;;2.40;;
10977;SDS011;5542;48.272;10.794;2023-04-03T12:53:47;2.90;;;2.60;;
10977;SDS011;5542;48.272;10.794;2023-04-03T12:56:19;2.15;;;2.03;;
10977;SDS011;5542;48.272;10.794;2023-04-03T12:58:47;2.40;;;2.20;;
10977;SDS011;5542;48.272;10.794;2023-04-03T13:01:15;2.10;;;2.00;;
10977;SDS011;5542;48.272;10.794;2023-04-03T13:03:45;3.13;;;2.47;;
10977;SDS011;5542;48.272;10.794;2023-04-03T13:06:19;2.88;;;2.50;;
10977;SDS011;5542;48.272;10.794;2023-04-03T13:08:48;3.00;;;2.80;;
10977;SDS011;5542;48.272;10.794;2023-04-03T13:11:16;4.45;;;3.80;;
10977;SDS011;5542;48.272;10.794;2023-04-03T13:13:59;4.10;;;2.63;;
10977;SDS011;5542;48.272;10.794;2023-04-03T13:16:27;2.40;;;2.20;;
10977;SDS011;5542;48.272;10.794;2023-04-03T13:18:54;2.78;;;2.58;;
10977;SDS011;5542;48.272;10.794;2023-04-03T13:21:22;3.17;;;2.40;;
10977;SDS011;5542;48.272;10.794;2023-04-03T13:23:52;2.80;;;2.60;;
10977;SDS011;5542;48.272;10.794;2023-04-03T13:26:22;2.72;;;2.08;;
10977;SDS011;5542;48.272;10.794;2023-04-03T13:28:52;2.63;;;2.38;;
10977;SDS011;5542;48.272;10.794;2023-04-03T13:31:22;2.38;;;2.15;;
10977;SDS011;5542;48.272;10.794;2023-04-03T13:33:54;2.42;;;2.22;;
10977;SDS011;5542;48.272;10.794;2023-04-03T13:36:26;2.38;;;2.20;;
10977;SDS011;5542;48.272;10.794;2023-04-03T13:39:00;2.10;;;2.00;;
10977;SDS011;5542;48.272;10.794;2023-04-03T13:41:30;2.38;;;2.05;;
10977;SDS011;5542;48.272;10.794;2023-04-03T13:46:44;2.40;;;2.00;;
10977;SDS011;5542;48.272;10.794;2023-04-03T13:49:18;2.40;;;2.20;;
10977;SDS011;5542;48.272;10.794;2023-04-03T13:51:47;2.28;;;2.08;;
10977;SDS011;5542;48.272;10.794;2023-04-03T13:54:18;2.03;;;1.90;;
10977;SDS011;5542;48.272;10.794;2023-04-03T13:56:47;1.80;;;1.70;;
10977;SDS011;5542;48.272;10.794;2023-04-03T13:59:21;1.70;;;1.60;;
10977;SDS011;5542;48.272;10.794;2023-04-03T14:01:50;3.10;;;1.90;;
10977;SDS011;5542;48.272;10.794;2023-04-03T14:04:20;2.40;;;2.20;;
10977;SDS011;5542;48.272;10.794;2023-04-03T14:06:51;2.42;;;1.70;;
10977;SDS011;5542;48.272;10.794;2023-04-03T14:09:19;1.65;;;1.50;;
10977;SDS011;5542;48.272;10.794;2023-04-03T14:11:47;1.60;;;1.50;;
10977;SDS011;5542;48.272;10.794;2023-04-03T14:14:16;2.05;;;1.60;;
10977;SDS011;5542;48.272;10.794;2023-04-03T14:16:46;1.60;;;1.50;;
10977;SDS011;5542;48.272;10.794;2023-04-03T14:19:17;1.50;;;1.40;;
10977;SDS011;5542;48.272;10.794;2023-04-03T14:21:47;2.38;;;1.27;;
10977;SDS011;5542;48.272;10.794;2023-04-03T14:24:17;1.65;;;1.55;;
10977;SDS011;5542;48.272;10.794;2023-04-03T14:26:44;2.15;;;1.85;;
10977;SDS011;5542;48.272;10.794;2023-04-03T14:29:12;1.53;;;1.43;;
10977;SDS011;5542;48.272;10.794;2023-04-03T14:31:39;1.88;;;1.77;;
10977;SDS011;5542;48.272;10.794;2023-04-03T14:34:05;1.77;;;1.42;;
10977;SDS011;5542;48.272;10.794;2023-04-03T14:36:32;3.05;;;1.60;;
10977;SDS011;5542;48.272;10.794;2023-04-03T14:38:59;3.03;;;1.77;;
10977;SDS011;5542;48.272;10.794;2023-04-03T14:41:28;1.55;;;1.45;;
10977;SDS011;5542;48.272;10.794;2023-04-03T14:43:55;1.98;;;1.77;;
10977;SDS011;5542;48.272;10.794;2023-04-03T14:46:23;2.28;;;2.13;;
10977;SDS011;5542;48.272;10.794;2023-04-03T14:48:52;2.58;;;2.00;;
10977;SDS011;5542;48.272;10.794;2023-04-03T14:51:19;2.33;;;1.65;;
10977;SDS011;5542;48.272;10.794;2023-04-03T14:53:46;2.05;;;1.95;;
10977;SDS011;5542;48.272;10.794;2023-04-03T14:56:14;2.03;;;1.90;;
10977;SDS011;5542;48.272;10.794;2023-04-03T14:58:45;1.70;;;1.60;;
10977;SDS011;5542;48.272;10.794;2023-04-03T15:01:14;1.83;;;1.73;;
10977;SDS011;5542;48.272;10.794;2023-04-03T15:03:41;2.00;;;1.77;;
10977;SDS011;5542;48.272;10.794;2023-04-03T15:06:08;1.73;;;1.63;;
10977;SDS011;5542;48.272;10.794;2023-04-03T15:08:35;2.58;;;2.20;;
10977;SDS011;5542;48.272;10.794;2023-04-03T15:11:02;1.90;;;1.80;;
10977;SDS011;5542;48.272;10.794;2023-04-03T15:13:30;1.98;;;1.73;;
10977;SDS011;5542;48.272;10.794;2023-04-03T15:15:58;1.40;;;1.30;;
10977;SDS011;5542;48.272;10.794;2023-04-03T15:18:25;3.13;;;1.63;;
10977;SDS011;5542;48.272;10.794;2023-04-03T15:20:53;1.73;;;1.63;;
10977;SDS011;5542;48.272;10.794;2023-04-03T15:23:20;2.47;;;1.73;;